createdAt,value
2018-03-04T00:00:44.274Z,46.33
2018-03-04T00:03:11.824Z,45.25
2018-03-04T00:05:39.343Z,61.53
2018-03-04T00:08:07.024Z,50.25
2018-03-04T00:10:34.516Z,48.10
2018-03-04T00:13:02.242Z,48.78
2018-03-04T00:15:29.746Z,48.38
2018-03-04T00:17:57.292Z,48.90
2018-03-04T00:20:24.929Z,48.33
2018-03-04T00:22:52.440Z,49.25
2018-03-04T00:25:20.729Z,49.55
2018-03-04T00:27:48.991Z,49.15
2018-03-04T00:30:16.517Z,51.00
2018-03-04T00:32:44.058Z,50.60
2018-03-04T00:35:11.585Z,51.20
2018-03-04T00:37:39.094Z,51.63
2018-03-04T00:40:06.609Z,51.37
2018-03-04T00:42:34.121Z,53.60
2018-03-04T00:45:01.644Z,53.55
2018-03-04T00:47:29.183Z,56.58
2018-03-04T00:49:56.713Z,54.60
2018-03-04T04:16:57.913Z,90.82
2018-03-04T04:19:25.407Z,69.68
2018-03-04T04:21:52.930Z,72.10
2018-03-04T04:24:20.580Z,69.03
2018-03-04T04:26:48.130Z,69.90
2018-03-04T04:29:15.642Z,67.47
2018-03-04T04:31:43.147Z,66.72
2018-03-04T04:34:11.407Z,69.95
2018-03-04T04:36:39.790Z,67.25
2018-03-04T04:39:07.316Z,68.25
2018-03-04T04:41:34.917Z,69.60
2018-03-04T04:44:02.448Z,66.05
2018-03-04T04:46:29.949Z,68.25
2018-03-04T04:48:57.979Z,71.47
2018-03-04T04:51:25.557Z,68.03
2018-03-04T04:53:53.048Z,67.55
2018-03-04T04:56:20.590Z,68.05
2018-03-04T04:58:48.135Z,70.65
2018-03-04T05:01:15.638Z,70.30
2018-03-04T05:03:43.153Z,71.20
2018-03-04T05:06:10.654Z,72.10
2018-03-04T05:08:38.962Z,71.60
2018-03-04T05:11:06.473Z,71.85
2018-03-04T05:13:33.998Z,78.05
2018-03-04T05:16:01.652Z,75.93
2018-03-04T05:18:29.157Z,73.25
2018-03-04T05:20:56.679Z,75.18
2018-03-04T05:23:24.946Z,74.93
2018-03-04T05:25:53.358Z,75.37
2018-03-04T05:28:20.862Z,72.18
2018-03-04T05:30:48.391Z,66.40
2018-03-04T05:33:15.898Z,68.72
2018-03-04T05:35:43.411Z,70.20
2018-03-04T05:38:11.147Z,72.35
2018-03-04T05:40:38.642Z,70.62
2018-03-04T05:43:06.171Z,72.82
2018-03-04T05:45:33.693Z,71.97
2018-03-04T05:48:01.978Z,70.75
2018-03-04T05:50:30.253Z,70.25
2018-03-04T05:52:58.552Z,73.45
2018-03-04T05:55:26.098Z,68.30
2018-03-04T05:57:53.643Z,71.35
2018-03-04T06:00:22.437Z,68.97
2018-03-04T06:02:50.119Z,70.97
2018-03-04T06:05:17.791Z,71.18
2018-03-04T06:07:45.288Z,73.30
2018-03-04T06:10:13.657Z,73.18
2018-03-04T06:12:41.389Z,73.70
2018-03-04T06:15:08.908Z,71.07
2018-03-04T06:17:37.176Z,72.55
2018-03-04T06:20:05.504Z,68.90
2018-03-04T06:22:33.039Z,75.53
2018-03-04T06:25:00.536Z,70.25
2018-03-04T06:27:28.169Z,70.25
2018-03-04T06:29:55.657Z,71.18
2018-03-04T06:32:23.175Z,70.00
2018-03-04T06:34:50.946Z,68.28
2018-03-04T06:37:18.461Z,66.50
2018-03-04T06:39:46.599Z,64.93
2018-03-04T06:42:14.110Z,63.83
2018-03-04T06:44:42.443Z,61.95
2018-03-04T06:47:09.976Z,61.78
2018-03-04T06:49:37.491Z,63.78
2018-03-04T06:52:05.035Z,62.03
2018-03-04T06:54:32.626Z,61.25
2018-03-04T06:57:00.136Z,62.70
2018-03-04T06:59:27.656Z,64.85
2018-03-04T07:01:55.177Z,59.58
2018-03-04T07:04:22.815Z,62.05
2018-03-04T07:06:50.311Z,63.65
2018-03-04T07:09:17.820Z,61.42
2018-03-04T07:11:45.355Z,61.92
2018-03-04T07:14:12.873Z,61.03
2018-03-04T07:16:40.401Z,62.17
2018-03-04T07:19:07.907Z,59.90
2018-03-04T07:21:35.574Z,59.60
2018-03-04T07:24:03.078Z,59.47
2018-03-04T07:26:30.756Z,60.65
2018-03-04T07:28:58.254Z,58.90
2018-03-04T07:31:25.916Z,58.53
2018-03-04T07:33:53.595Z,59.20
2018-03-04T07:36:21.084Z,58.08
2018-03-04T07:38:48.597Z,61.00
2018-03-04T07:41:16.135Z,59.90
2018-03-04T07:43:43.815Z,59.00
2018-03-04T07:46:11.329Z,58.63
2018-03-04T07:48:38.868Z,59.70
2018-03-04T07:51:06.379Z,59.38
2018-03-04T07:53:33.907Z,56.10
2018-03-04T07:56:01.413Z,57.25
2018-03-04T07:58:28.988Z,52.63
2018-03-04T08:00:56.616Z,56.07
2018-03-04T08:03:24.119Z,56.17
2018-03-04T08:05:51.633Z,57.60
2018-03-04T08:08:19.358Z,57.95
2018-03-04T08:10:46.896Z,56.67
2018-03-04T08:13:14.414Z,54.93
2018-03-04T08:15:41.981Z,55.53
2018-03-04T08:18:09.662Z,56.57
2018-03-04T08:20:37.149Z,54.73
2018-03-04T08:23:04.770Z,54.93
2018-03-04T08:25:34.289Z,52.23
2018-03-04T08:28:13.998Z,52.67
2018-03-04T08:30:41.664Z,54.53
2018-03-04T08:33:09.168Z,51.90
2018-03-04T08:35:36.794Z,55.50
2018-03-04T08:38:04.458Z,53.97
2018-03-04T08:40:31.967Z,56.20
2018-03-04T08:42:59.586Z,56.47
2018-03-04T08:45:27.110Z,56.50
2018-03-04T08:47:55.507Z,56.43
2018-03-04T08:50:23.171Z,57.13
2018-03-04T08:52:51.154Z,56.77
2018-03-04T08:55:18.720Z,54.80
2018-03-04T08:57:46.212Z,54.77
2018-03-04T09:00:13.733Z,56.40
2018-03-04T09:02:41.388Z,56.40
2018-03-04T09:05:08.914Z,55.03
2018-03-04T09:07:37.195Z,56.27
2018-03-04T09:10:04.749Z,56.93
2018-03-04T09:12:32.237Z,53.67
2018-03-04T09:14:59.792Z,54.87
2018-03-04T09:17:27.320Z,56.83
2018-03-04T09:19:54.835Z,63.75
2018-03-04T09:22:23.103Z,58.87
2018-03-04T09:24:50.600Z,56.43
2018-03-04T09:27:18.123Z,57.03
2018-03-04T09:29:45.636Z,56.37
2018-03-04T09:32:13.160Z,54.97
2018-03-04T09:34:40.698Z,56.47
2018-03-04T19:59:39.335Z,46.40
2018-03-04T20:02:06.880Z,44.28
2018-03-04T20:04:34.744Z,46.60
2018-03-04T20:07:02.288Z,50.20
2018-03-04T20:09:29.860Z,43.55
2018-03-04T20:11:57.394Z,43.78
2018-03-04T20:14:24.962Z,43.80
2018-03-04T20:16:52.511Z,41.65
2018-03-04T20:19:20.799Z,43.97
2018-03-04T20:21:48.303Z,43.85
2018-03-04T20:24:15.830Z,44.25
2018-03-04T20:26:43.397Z,43.87
2018-03-04T20:29:11.218Z,42.10
2018-03-04T20:31:39.499Z,42.70
2018-03-04T20:34:07.016Z,43.40
2018-03-04T20:36:34.540Z,55.88
2018-03-04T20:39:02.110Z,45.58
2018-03-04T20:41:29.700Z,51.67
2018-03-04T20:43:57.617Z,45.33
2018-03-04T20:46:25.147Z,53.78
2018-03-04T20:48:52.707Z,45.00
2018-03-04T20:51:20.224Z,41.55
2018-03-04T20:53:47.710Z,43.70
2018-03-04T20:56:15.430Z,44.03
2018-03-04T20:58:42.977Z,42.92
2018-03-04T21:01:10.508Z,41.63
2018-03-04T21:03:38.819Z,41.92
2018-03-04T21:06:06.384Z,42.88
2018-03-04T21:08:33.912Z,43.85
2018-03-04T21:11:01.492Z,42.95
2018-03-04T21:13:29.018Z,42.35
2018-03-04T21:15:56.748Z,43.85
2018-03-04T21:18:24.296Z,42.08
2018-03-04T21:20:51.811Z,43.28
2018-03-04T21:23:19.320Z,43.22
2018-03-04T21:25:46.837Z,42.97
2018-03-04T21:28:14.392Z,41.70
2018-03-04T21:30:41.913Z,42.17
2018-03-04T21:33:09.407Z,43.15
2018-03-04T21:35:37.694Z,43.05
2018-03-04T21:38:05.262Z,43.60
2018-03-04T21:40:32.783Z,45.60
2018-03-04T21:43:00.297Z,45.42
2018-03-04T21:45:27.820Z,44.70
2018-03-04T21:47:56.088Z,44.03
2018-03-04T21:50:24.492Z,43.15
2018-03-04T21:52:51.979Z,42.00
2018-03-04T21:55:19.477Z,42.03
2018-03-04T21:57:47.771Z,43.85
2018-03-04T22:00:15.256Z,44.08
2018-03-04T22:02:42.779Z,44.55
2018-03-04T22:05:10.466Z,43.72
2018-03-04T22:07:37.972Z,42.42
2018-03-04T22:10:05.498Z,43.22
2018-03-04T22:12:33.056Z,43.13
2018-03-04T22:15:00.712Z,42.55
2018-03-04T22:17:28.237Z,42.08
2018-03-04T22:19:56.518Z,42.85
2018-03-04T22:22:24.073Z,42.25
2018-03-04T22:24:51.575Z,43.80
2018-03-04T22:27:20.854Z,43.30
2018-03-04T22:29:48.403Z,44.00
2018-03-04T22:32:15.910Z,43.22
2018-03-04T22:34:43.524Z,42.00
2018-03-04T22:37:11.039Z,54.72
2018-03-04T22:39:38.634Z,46.65
2018-03-04T22:42:06.297Z,42.78
2018-03-04T22:44:33.809Z,43.13
2018-03-04T22:47:01.322Z,42.83
2018-03-04T22:49:28.852Z,42.67
2018-03-04T22:51:57.134Z,44.97
2018-03-04T22:54:25.466Z,44.55
2018-03-04T22:56:52.964Z,44.58
2018-03-04T22:59:20.651Z,42.10
2018-03-04T23:01:48.179Z,43.20
2018-03-04T23:04:16.482Z,43.72
2018-03-04T23:06:44.064Z,43.38
2018-03-04T23:09:11.565Z,43.25
2018-03-04T23:11:40.119Z,43.58
2018-03-04T23:14:07.611Z,43.90
2018-03-04T23:16:35.893Z,41.75
2018-03-04T23:19:03.882Z,40.92
2018-03-04T23:21:31.442Z,41.90
2018-03-04T23:23:58.977Z,44.35
2018-03-04T23:26:27.365Z,44.97
2018-03-04T23:28:54.897Z,45.83
2018-03-04T23:31:22.509Z,44.90
2018-03-04T23:33:50.004Z,44.30
2018-03-04T23:36:17.540Z,45.15
2018-03-04T23:38:45.030Z,44.67
2018-03-04T23:41:12.951Z,43.70
2018-03-04T23:43:40.532Z,44.40
2018-03-04T23:46:08.041Z,42.50
2018-03-04T23:48:36.331Z,46.37
2018-03-04T23:51:04.051Z,46.83
2018-03-04T23:53:31.584Z,46.92
2018-03-04T23:55:59.070Z,46.97
2018-03-04T23:58:26.781Z,45.58
